Carnforth, United Kingdom
Current Conditions -  °F | °C
As of 9:20 AM on Wednesday 22 Oct 2014 (Local Time) from EGNO Reporting Station
Scattered Clouds Scattered Clouds  
Wind Chill: 54°   Ceiling: Unl
Heat Index: 54°   Visibility: 6mi
Dew Point: 46°   Wind: 16mph
Humidity: 77%   Direction: 290°WNW
Pressure: 30.21"   Gusts: NA
Location:  54.12°N, 2.77°W
Report Text: EGNO 220820Z 29014KT 9999 SCT021 12/08 Q1023
Loading
Personal Weather Stations






























Interactive Weather Map
Tropical Storm Tracking
New forecast layout! Learn more

10-Day Weather Forecast

Advertisements
Track Severe Weather on mobile